KCLS/CLS METAR and TAF weather

Enter ICAO airport designator
Station Type Date Time Source
KCLS METAR 2021/09/19 13:55 UTC NOAA

KCLS 191355Z AUTO 18005KT 10SM BKN010 BKN050 BKN060 11/11 A2994 RMK AO2


Station Type Date Time Source
KCLS Decoded METAR 2021/09/19 13:55 UTC NOAA

Station name not available
Sep 19, 2021 - 09:55 AM EDT / 2021.09.19 1355 UTC
Wind: from the S (180 degrees) at 6 MPH (5 KT):0
Visibility: 10 mile(s):0
Sky conditions: mostly cloudy
Temperature: 51 F (11 C)
Dew Point: 51 F (11 C)
Relative Humidity: 100%
Pressure (altimeter): 29.94 in. Hg (1013 hPa)
ob: KCLS 191355Z AUTO 18005KT 10SM BKN010 BKN050 BKN060 11/11 A2994 RMK AO2
cycle: 14

Station Type Date Time Source
KCLS TAF UTC NOAA

Error!

Example: see airport list